BAW7GV EGLL-LSZH
Flight info
| Callsign | BAW7GV |
|---|---|
| Flight time | 1h 17m |
| Altitude | 29000 |
| Route | DET1J DET L6 DVR UL9 KONAN DCT KOK DCT SISGA DCT RITAX DCT KRH M150 LAMGO/N0406F270 T721 RILAX RILAX2A |
| Aircraft | A21N/M-SDE3FGIJ1LRWY/SB1G1 |
Departure
| Time | 2026-05-07 03:05 |
|---|---|
| Airport | London Heathrow Airport (EGLL) |
Arrival
| Time | 2026-05-07 04:22 |
|---|---|
| Airport | Zürich Airport (LSZH) |
| Time | Latitude | Longitude | Altitude | Speed | Heading |
|---|---|---|---|---|---|
| 2026-05-07 02:26 | 51.47087 | -0.48577 | 92 ft | 0 kts | 270° |
| 2026-05-07 02:56 | 51.47087 | -0.48546 | 92 ft | 4 kts | 270° |
| 2026-05-07 02:57 | 51.47087 | -0.48512 | 91 ft | 4 kts | 262° |
| 2026-05-07 02:57 | 51.47097 | -0.48478 | 94 ft | 4 kts | 206° |
| 2026-05-07 02:57 | 51.47120 | -0.48472 | 95 ft | 4 kts | 180° |
| 2026-05-07 02:57 | 51.47132 | -0.48472 | 93 ft | 1 kts | 180° |
| 2026-05-07 03:00 | 51.47127 | -0.48472 | 91 ft | 2 kts | 180° |
| 2026-05-07 03:01 | 51.47098 | -0.48472 | 93 ft | 3 kts | 180° |
| 2026-05-07 03:01 | 51.47063 | -0.48471 | 92 ft | 7 kts | 179° |
| 2026-05-07 03:01 | 51.47007 | -0.48471 | 95 ft | 10 kts | 180° |
| 2026-05-07 03:01 | 51.46929 | -0.48471 | 93 ft | 12 kts | 179° |
| 2026-05-07 03:02 | 51.46838 | -0.48470 | 93 ft | 14 kts | 180° |
| 2026-05-07 03:02 | 51.46733 | -0.48470 | 92 ft | 16 kts | 180° |
| 2026-05-07 03:02 | 51.46640 | -0.48468 | 92 ft | 11 kts | 179° |
| 2026-05-07 03:02 | 51.46602 | -0.48468 | 92 ft | 0 kts | 181° |
| 2026-05-07 03:03 | 51.46587 | -0.48468 | 92 ft | 4 kts | 181° |
| 2026-05-07 03:03 | 51.46541 | -0.48469 | 92 ft | 9 kts | 181° |
| 2026-05-07 03:04 | 51.46481 | -0.48430 | 92 ft | 11 kts | 108° |
| 2026-05-07 03:04 | 51.46479 | -0.48361 | 92 ft | 5 kts | 90° |
| 2026-05-07 03:04 | 51.46478 | -0.48155 | 93 ft | 55 kts | 90° |
| 2026-05-07 03:04 | 51.46481 | -0.47034 | 93 ft | 143 kts | 89° |
| 2026-05-07 03:05 | 51.46486 | -0.45210 | 546 ft | 170 kts | 89° |
| 2026-05-07 03:05 | 51.46505 | -0.43263 | 1437 ft | 182 kts | 88° |
| 2026-05-07 03:05 | 51.46506 | -0.41129 | 1986 ft | 201 kts | 100° |
| 2026-05-07 03:05 | 51.45904 | -0.39047 | 2595 ft | 215 kts | 127° |
| 2026-05-07 03:06 | 51.44769 | -0.37271 | 3016 ft | 241 kts | 140° |
| 2026-05-07 03:06 | 51.43711 | -0.35099 | 3636 ft | 256 kts | 112° |
| 2026-05-07 03:06 | 51.43232 | -0.32322 | 4510 ft | 261 kts | 102° |
| 2026-05-07 03:06 | 51.42863 | -0.29445 | 5407 ft | 266 kts | 102° |
| 2026-05-07 03:07 | 51.42442 | -0.26549 | 6308 ft | 269 kts | 104° |
| 2026-05-07 03:07 | 51.41987 | -0.23614 | 7159 ft | 273 kts | 104° |
| 2026-05-07 03:07 | 51.41527 | -0.20642 | 7993 ft | 277 kts | 104° |
| 2026-05-07 03:07 | 51.41059 | -0.17617 | 8832 ft | 282 kts | 104° |
| 2026-05-07 03:08 | 51.40590 | -0.14582 | 9697 ft | 287 kts | 103° |
| 2026-05-07 03:08 | 51.40103 | -0.11435 | 10380 ft | 299 kts | 103° |
| 2026-05-07 03:08 | 51.39585 | -0.08095 | 10743 ft | 320 kts | 103° |
| 2026-05-07 03:08 | 51.39029 | -0.04515 | 11063 ft | 342 kts | 103° |
| 2026-05-07 03:09 | 51.38444 | -0.00740 | 11607 ft | 354 kts | 103° |
| 2026-05-07 03:09 | 51.37844 | 0.03114 | 12340 ft | 359 kts | 103° |
| 2026-05-07 03:09 | 51.37234 | 0.07018 | 13130 ft | 363 kts | 104° |
| 2026-05-07 03:09 | 51.36614 | 0.10962 | 13901 ft | 367 kts | 104° |
| 2026-05-07 03:10 | 51.35985 | 0.14951 | 14593 ft | 371 kts | 104° |
| 2026-05-07 03:10 | 51.35352 | 0.18980 | 15275 ft | 375 kts | 104° |
| 2026-05-07 03:10 | 51.34709 | 0.23051 | 15956 ft | 379 kts | 104° |
| 2026-05-07 03:10 | 51.34056 | 0.27160 | 16617 ft | 383 kts | 104° |
| 2026-05-07 03:11 | 51.33397 | 0.31302 | 17275 ft | 386 kts | 104° |
| 2026-05-07 03:11 | 51.32731 | 0.35487 | 17830 ft | 390 kts | 104° |
| 2026-05-07 03:11 | 51.32058 | 0.39708 | 18404 ft | 394 kts | 104° |
| 2026-05-07 03:11 | 51.31376 | 0.43964 | 18927 ft | 397 kts | 104° |
| 2026-05-07 03:12 | 51.30686 | 0.48263 | 19452 ft | 400 kts | 104° |
| 2026-05-07 03:12 | 51.29990 | 0.52591 | 19970 ft | 404 kts | 104° |
| 2026-05-07 03:12 | 51.29286 | 0.56955 | 20492 ft | 407 kts | 104° |
| 2026-05-07 03:12 | 51.28590 | 0.61288 | 21013 ft | 410 kts | 104° |
| 2026-05-07 03:13 | 51.27868 | 0.65774 | 21515 ft | 413 kts | 104° |
| 2026-05-07 03:13 | 51.27155 | 0.70182 | 22028 ft | 417 kts | 105° |
| 2026-05-07 03:13 | 51.26423 | 0.74674 | 22545 ft | 420 kts | 105° |
| 2026-05-07 03:13 | 51.25683 | 0.79210 | 23052 ft | 423 kts | 105° |
| 2026-05-07 03:14 | 51.24936 | 0.83770 | 23557 ft | 427 kts | 105° |
| 2026-05-07 03:14 | 51.24182 | 0.88364 | 24000 ft | 430 kts | 105° |
| 2026-05-07 03:14 | 51.22650 | 0.97654 | 24890 ft | 436 kts | 105° |
| 2026-05-07 03:15 | 51.21875 | 1.02339 | 25306 ft | 439 kts | 105° |
| 2026-05-07 03:15 | 51.21093 | 1.07055 | 25719 ft | 441 kts | 105° |
| 2026-05-07 03:15 | 51.20304 | 1.11804 | 26135 ft | 444 kts | 105° |
| 2026-05-07 03:15 | 51.19507 | 1.16578 | 26528 ft | 447 kts | 105° |
| 2026-05-07 03:16 | 51.18703 | 1.21380 | 26917 ft | 450 kts | 105° |
| 2026-05-07 03:16 | 51.17893 | 1.26208 | 27303 ft | 452 kts | 105° |
| 2026-05-07 03:16 | 51.17076 | 1.31065 | 27667 ft | 455 kts | 105° |
| 2026-05-07 03:16 | 51.16323 | 1.35986 | 28004 ft | 458 kts | 100° |
| 2026-05-07 03:17 | 51.15986 | 1.41047 | 28349 ft | 461 kts | 94° |
| 2026-05-07 03:17 | 51.15755 | 1.46155 | 28698 ft | 463 kts | 94° |
| 2026-05-07 03:17 | 51.15519 | 1.51292 | 29043 ft | 466 kts | 94° |
| 2026-05-07 03:17 | 51.15277 | 1.56372 | 29424 ft | 466 kts | 94° |
| 2026-05-07 03:18 | 51.15023 | 1.61514 | 29876 ft | 466 kts | 95° |
| 2026-05-07 03:18 | 51.14770 | 1.66647 | 30302 ft | 465 kts | 95° |
| 2026-05-07 03:18 | 51.14517 | 1.71778 | 30674 ft | 464 kts | 95° |
| 2026-05-07 03:18 | 51.14264 | 1.76888 | 31044 ft | 463 kts | 95° |
| 2026-05-07 03:19 | 51.14007 | 1.81999 | 31432 ft | 462 kts | 95° |
| 2026-05-07 03:19 | 51.13748 | 1.87086 | 31799 ft | 461 kts | 95° |
| 2026-05-07 03:19 | 51.13480 | 1.92174 | 32180 ft | 460 kts | 95° |
| 2026-05-07 03:19 | 51.13214 | 1.97237 | 32556 ft | 459 kts | 95° |
| 2026-05-07 03:20 | 51.12951 | 2.02298 | 32898 ft | 458 kts | 95° |
| 2026-05-07 03:20 | 51.12688 | 2.07349 | 33233 ft | 457 kts | 95° |
| 2026-05-07 03:20 | 51.12420 | 2.12397 | 33550 ft | 457 kts | 95° |
| 2026-05-07 03:20 | 51.12150 | 2.17429 | 33850 ft | 457 kts | 95° |
| 2026-05-07 03:21 | 51.11877 | 2.22469 | 34107 ft | 456 kts | 95° |
| 2026-05-07 03:21 | 51.11602 | 2.27509 | 34316 ft | 457 kts | 95° |
| 2026-05-07 03:21 | 51.11322 | 2.32548 | 34527 ft | 457 kts | 95° |
| 2026-05-07 03:21 | 51.11042 | 2.37577 | 34741 ft | 457 kts | 95° |
| 2026-05-07 03:22 | 51.10762 | 2.42616 | 34920 ft | 457 kts | 95° |
| 2026-05-07 03:22 | 51.10483 | 2.47614 | 35026 ft | 458 kts | 95° |
| 2026-05-07 03:22 | 51.10194 | 2.52666 | 35025 ft | 458 kts | 95° |
| 2026-05-07 03:23 | 51.09539 | 2.62731 | 34998 ft | 457 kts | 101° |
| 2026-05-07 03:23 | 51.08661 | 2.67588 | 34987 ft | 457 kts | 113° |
| 2026-05-07 03:23 | 51.07270 | 2.72125 | 34995 ft | 456 kts | 118° |
| 2026-05-07 03:24 | 51.04257 | 2.81010 | 34992 ft | 456 kts | 118° |
| 2026-05-07 03:24 | 51.01287 | 2.89870 | 35011 ft | 456 kts | 118° |
| 2026-05-07 03:25 | 50.98314 | 2.98775 | 35009 ft | 456 kts | 118° |
| 2026-05-07 03:25 | 50.95337 | 3.07659 | 35006 ft | 456 kts | 118° |
| 2026-05-07 03:26 | 50.92354 | 3.16535 | 35000 ft | 456 kts | 118° |
| 2026-05-07 03:26 | 50.89367 | 3.25392 | 34996 ft | 456 kts | 118° |
| 2026-05-07 03:27 | 50.86365 | 3.34247 | 34999 ft | 455 kts | 118° |
| 2026-05-07 03:27 | 50.83371 | 3.43074 | 35000 ft | 455 kts | 118° |
| 2026-05-07 03:28 | 50.80366 | 3.51893 | 35003 ft | 455 kts | 118° |
| 2026-05-07 03:28 | 50.77370 | 3.60644 | 35000 ft | 455 kts | 118° |
| 2026-05-07 03:29 | 50.74358 | 3.69431 | 35001 ft | 455 kts | 118° |
| 2026-05-07 03:29 | 50.71334 | 3.78204 | 35001 ft | 454 kts | 118° |
| 2026-05-07 03:30 | 50.68316 | 3.86927 | 35000 ft | 453 kts | 118° |
| 2026-05-07 03:30 | 50.65293 | 3.95636 | 34999 ft | 453 kts | 118° |
| 2026-05-07 03:31 | 50.62264 | 4.04342 | 34998 ft | 453 kts | 118° |
| 2026-05-07 03:31 | 50.59525 | 4.13270 | 34994 ft | 453 kts | 115° |
| 2026-05-07 03:32 | 50.56848 | 4.22242 | 34990 ft | 453 kts | 115° |
| 2026-05-07 03:32 | 50.54176 | 4.31122 | 34992 ft | 452 kts | 115° |
| 2026-05-07 03:33 | 50.51485 | 4.40057 | 34993 ft | 452 kts | 115° |
| 2026-05-07 03:33 | 50.48788 | 4.48974 | 34993 ft | 452 kts | 115° |
| 2026-05-07 03:34 | 50.46081 | 4.57886 | 34996 ft | 452 kts | 115° |
| 2026-05-07 03:34 | 50.43371 | 4.66778 | 34995 ft | 451 kts | 115° |
| 2026-05-07 03:35 | 50.40662 | 4.75645 | 34990 ft | 451 kts | 115° |
| 2026-05-07 03:35 | 50.37941 | 4.84495 | 34987 ft | 451 kts | 115° |
| 2026-05-07 03:36 | 50.35678 | 4.91847 | 34989 ft | 451 kts | 115° |
| 2026-05-07 03:36 | 50.32948 | 5.00684 | 34986 ft | 451 kts | 115° |
| 2026-05-07 03:37 | 50.30207 | 5.09514 | 34981 ft | 451 kts | 116° |
| 2026-05-07 03:37 | 50.27475 | 5.18283 | 34978 ft | 451 kts | 116° |
| 2026-05-07 03:38 | 50.24729 | 5.27094 | 34981 ft | 451 kts | 116° |
| 2026-05-07 03:38 | 50.21971 | 5.35893 | 34980 ft | 451 kts | 116° |
| 2026-05-07 03:39 | 50.19207 | 5.44679 | 34974 ft | 451 kts | 116° |
| 2026-05-07 03:39 | 50.16436 | 5.53451 | 34973 ft | 451 kts | 116° |
| 2026-05-07 03:40 | 50.13660 | 5.62235 | 34973 ft | 451 kts | 116° |
| 2026-05-07 03:40 | 50.10871 | 5.71006 | 34968 ft | 452 kts | 117° |
| 2026-05-07 03:41 | 50.08092 | 5.79702 | 34965 ft | 451 kts | 117° |
| 2026-05-07 03:41 | 50.05004 | 5.88205 | 34960 ft | 452 kts | 120° |
| 2026-05-07 03:42 | 50.01853 | 5.96658 | 34959 ft | 451 kts | 120° |
| 2026-05-07 03:42 | 49.98706 | 6.05078 | 34950 ft | 450 kts | 120° |
| 2026-05-07 03:43 | 49.95554 | 6.13486 | 34948 ft | 450 kts | 121° |
| 2026-05-07 03:43 | 49.92404 | 6.21886 | 34937 ft | 450 kts | 121° |
| 2026-05-07 03:44 | 49.89241 | 6.30282 | 34943 ft | 450 kts | 121° |
| 2026-05-07 03:44 | 49.86076 | 6.38661 | 34939 ft | 450 kts | 121° |
| 2026-05-07 03:45 | 49.82904 | 6.47008 | 34937 ft | 449 kts | 121° |
| 2026-05-07 03:45 | 49.79755 | 6.55298 | 34933 ft | 449 kts | 121° |
| 2026-05-07 03:46 | 49.76577 | 6.63623 | 34924 ft | 449 kts | 121° |
| 2026-05-07 03:46 | 49.73394 | 6.71944 | 34921 ft | 450 kts | 121° |
| 2026-05-07 03:47 | 49.70199 | 6.80253 | 34918 ft | 450 kts | 121° |
| 2026-05-07 03:47 | 49.66993 | 6.88572 | 34923 ft | 451 kts | 122° |
| 2026-05-07 03:48 | 49.63783 | 6.96892 | 34927 ft | 451 kts | 121° |
| 2026-05-07 03:48 | 49.60567 | 7.05186 | 34922 ft | 451 kts | 122° |
| 2026-05-07 03:49 | 49.57339 | 7.13480 | 34923 ft | 451 kts | 122° |
| 2026-05-07 03:49 | 49.54106 | 7.21761 | 34927 ft | 450 kts | 122° |
| 2026-05-07 03:50 | 49.50895 | 7.29972 | 34925 ft | 450 kts | 122° |
| 2026-05-07 03:50 | 49.47653 | 7.38231 | 34921 ft | 451 kts | 122° |
| 2026-05-07 03:51 | 49.44403 | 7.46484 | 34926 ft | 451 kts | 122° |
| 2026-05-07 03:51 | 49.41150 | 7.54724 | 34923 ft | 451 kts | 122° |
| 2026-05-07 03:52 | 49.37887 | 7.62957 | 34919 ft | 450 kts | 122° |
| 2026-05-07 03:52 | 49.34631 | 7.71150 | 34920 ft | 449 kts | 122° |
| 2026-05-07 03:53 | 49.31369 | 7.79330 | 34925 ft | 449 kts | 122° |
| 2026-05-07 03:53 | 49.28101 | 7.87487 | 34930 ft | 449 kts | 122° |
| 2026-05-07 03:54 | 49.24850 | 7.95595 | 34929 ft | 449 kts | 122° |
| 2026-05-07 03:54 | 49.21563 | 8.03732 | 34936 ft | 450 kts | 123° |
| 2026-05-07 03:55 | 49.18278 | 8.11870 | 34945 ft | 449 kts | 123° |
| 2026-05-07 03:55 | 49.14987 | 8.19997 | 34940 ft | 450 kts | 123° |
| 2026-05-07 03:56 | 49.11691 | 8.28107 | 34943 ft | 449 kts | 123° |
| 2026-05-07 03:56 | 49.08388 | 8.36218 | 34932 ft | 449 kts | 123° |
| 2026-05-07 03:57 | 49.05081 | 8.44321 | 34938 ft | 450 kts | 123° |
| 2026-05-07 03:57 | 49.01768 | 8.52405 | 34931 ft | 450 kts | 123° |
| 2026-05-07 03:58 | 48.98275 | 8.60306 | 34930 ft | 449 kts | 130° |
| 2026-05-07 03:58 | 48.94274 | 8.67593 | 34937 ft | 449 kts | 131° |
| 2026-05-07 03:58 | 48.92133 | 8.70974 | 34654 ft | 443 kts | 141° |
| 2026-05-07 03:59 | 48.89602 | 8.73639 | 34381 ft | 442 kts | 153° |
| 2026-05-07 03:59 | 48.86764 | 8.75389 | 34139 ft | 441 kts | 165° |
| 2026-05-07 03:59 | 48.83742 | 8.76164 | 33901 ft | 440 kts | 178° |
| 2026-05-07 03:59 | 48.80733 | 8.75954 | 33629 ft | 439 kts | 189° |
| 2026-05-07 04:00 | 48.77719 | 8.75156 | 33357 ft | 439 kts | 191° |
| 2026-05-07 04:00 | 48.74714 | 8.74278 | 32998 ft | 439 kts | 191° |
| 2026-05-07 04:00 | 48.71722 | 8.73430 | 32354 ft | 438 kts | 191° |
| 2026-05-07 04:00 | 48.68719 | 8.72605 | 31671 ft | 439 kts | 191° |
| 2026-05-07 04:01 | 48.65715 | 8.71796 | 31044 ft | 439 kts | 190° |
| 2026-05-07 04:01 | 48.62712 | 8.70993 | 30457 ft | 438 kts | 190° |
| 2026-05-07 04:01 | 48.59703 | 8.70192 | 29860 ft | 437 kts | 190° |
| 2026-05-07 04:01 | 48.56712 | 8.69400 | 29194 ft | 436 kts | 190° |
| 2026-05-07 04:02 | 48.53727 | 8.68612 | 28566 ft | 434 kts | 190° |
| 2026-05-07 04:02 | 48.50807 | 8.67835 | 28004 ft | 430 kts | 190° |
| 2026-05-07 04:02 | 48.47860 | 8.67055 | 27437 ft | 428 kts | 190° |
| 2026-05-07 04:02 | 48.44937 | 8.66285 | 26843 ft | 426 kts | 190° |
| 2026-05-07 04:03 | 48.42025 | 8.65514 | 26255 ft | 424 kts | 190° |
| 2026-05-07 04:03 | 48.39121 | 8.64747 | 25678 ft | 423 kts | 190° |
| 2026-05-07 04:03 | 48.36237 | 8.63916 | 25124 ft | 421 kts | 192° |
| 2026-05-07 04:03 | 48.33367 | 8.63054 | 24553 ft | 419 kts | 192° |
| 2026-05-07 04:04 | 48.30513 | 8.62195 | 23972 ft | 418 kts | 192° |
| 2026-05-07 04:04 | 48.27669 | 8.61340 | 23393 ft | 416 kts | 192° |
| 2026-05-07 04:04 | 48.24842 | 8.60494 | 22751 ft | 413 kts | 192° |
| 2026-05-07 04:04 | 48.22038 | 8.59653 | 22176 ft | 408 kts | 192° |
| 2026-05-07 04:05 | 48.19270 | 8.58821 | 21592 ft | 403 kts | 192° |
| 2026-05-07 04:05 | 48.16538 | 8.57993 | 21026 ft | 397 kts | 192° |
| 2026-05-07 04:05 | 48.13849 | 8.57181 | 20481 ft | 391 kts | 192° |
| 2026-05-07 04:05 | 48.11204 | 8.56389 | 19964 ft | 384 kts | 193° |
| 2026-05-07 04:06 | 48.08611 | 8.55617 | 19480 ft | 376 kts | 193° |
| 2026-05-07 04:06 | 48.06065 | 8.54859 | 19022 ft | 369 kts | 193° |
| 2026-05-07 04:06 | 48.03571 | 8.54117 | 18576 ft | 363 kts | 193° |
| 2026-05-07 04:06 | 48.01139 | 8.53394 | 18144 ft | 357 kts | 193° |
| 2026-05-07 04:07 | 47.98726 | 8.52679 | 17687 ft | 351 kts | 193° |
| 2026-05-07 04:07 | 47.96346 | 8.51977 | 17245 ft | 348 kts | 193° |
| 2026-05-07 04:07 | 47.93935 | 8.51608 | 16807 ft | 351 kts | 180° |
| 2026-05-07 04:07 | 47.91513 | 8.52117 | 16405 ft | 352 kts | 171° |
| 2026-05-07 04:08 | 47.89121 | 8.52893 | 16002 ft | 352 kts | 170° |
| 2026-05-07 04:08 | 47.86728 | 8.53687 | 15600 ft | 351 kts | 170° |
| 2026-05-07 04:08 | 47.84342 | 8.54463 | 15186 ft | 350 kts | 171° |
| 2026-05-07 04:08 | 47.81957 | 8.55222 | 14794 ft | 350 kts | 171° |
| 2026-05-07 04:09 | 47.79579 | 8.55969 | 14392 ft | 350 kts | 171° |
| 2026-05-07 04:09 | 47.77199 | 8.56713 | 13989 ft | 349 kts | 171° |
| 2026-05-07 04:09 | 47.74819 | 8.57458 | 13565 ft | 349 kts | 171° |
| 2026-05-07 04:09 | 47.72439 | 8.58204 | 13131 ft | 348 kts | 171° |
| 2026-05-07 04:10 | 47.70104 | 8.58945 | 12742 ft | 347 kts | 169° |
| 2026-05-07 04:10 | 47.67862 | 8.60238 | 12352 ft | 350 kts | 151° |
| 2026-05-07 04:10 | 47.66030 | 8.62622 | 11955 ft | 354 kts | 133° |
| 2026-05-07 04:10 | 47.64485 | 8.65486 | 11564 ft | 354 kts | 130° |
| 2026-05-07 04:11 | 47.62983 | 8.68360 | 11159 ft | 354 kts | 130° |
| 2026-05-07 04:11 | 47.61460 | 8.71226 | 10801 ft | 349 kts | 131° |
| 2026-05-07 04:11 | 47.59965 | 8.73997 | 10583 ft | 338 kts | 131° |
| 2026-05-07 04:11 | 47.58514 | 8.76666 | 10415 ft | 326 kts | 132° |
| 2026-05-07 04:12 | 47.57113 | 8.79229 | 10270 ft | 315 kts | 132° |
| 2026-05-07 04:12 | 47.55857 | 8.81831 | 10040 ft | 309 kts | 120° |
| 2026-05-07 04:12 | 47.55248 | 8.84871 | 9651 ft | 308 kts | 99° |
| 2026-05-07 04:12 | 47.55020 | 8.87990 | 9247 ft | 303 kts | 97° |
| 2026-05-07 04:13 | 47.54835 | 8.91091 | 8899 ft | 303 kts | 97° |
| 2026-05-07 04:13 | 47.54637 | 8.94208 | 8554 ft | 304 kts | 97° |
| 2026-05-07 04:13 | 47.54423 | 8.97324 | 8207 ft | 305 kts | 98° |
| 2026-05-07 04:13 | 47.54183 | 9.00449 | 7877 ft | 305 kts | 102° |
| 2026-05-07 04:14 | 47.53480 | 9.03311 | 7624 ft | 289 kts | 129° |
| 2026-05-07 04:14 | 47.52125 | 9.05326 | 7465 ft | 267 kts | 156° |
| 2026-05-07 04:14 | 47.50454 | 9.06127 | 7332 ft | 243 kts | 181° |
| 2026-05-07 04:14 | 47.48842 | 9.06002 | 7128 ft | 231 kts | 194° |
| 2026-05-07 04:15 | 47.47266 | 9.05639 | 6985 ft | 229 kts | 194° |
| 2026-05-07 04:15 | 47.45689 | 9.05300 | 6979 ft | 229 kts | 194° |
| 2026-05-07 04:15 | 47.44181 | 9.04671 | 6968 ft | 223 kts | 212° |
| 2026-05-07 04:15 | 47.43023 | 9.03211 | 6983 ft | 220 kts | 236° |
| 2026-05-07 04:16 | 47.42474 | 9.01172 | 6755 ft | 215 kts | 262° |
| 2026-05-07 04:16 | 47.42514 | 8.98959 | 6402 ft | 218 kts | 277° |
| 2026-05-07 04:16 | 47.42807 | 8.96755 | 6072 ft | 219 kts | 274° |
| 2026-05-07 04:16 | 47.42983 | 8.94525 | 5989 ft | 218 kts | 274° |
| 2026-05-07 04:17 | 47.43146 | 8.92287 | 5988 ft | 219 kts | 274° |
| 2026-05-07 04:17 | 47.43306 | 8.90051 | 5996 ft | 220 kts | 274° |
| 2026-05-07 04:17 | 47.43467 | 8.87807 | 5930 ft | 219 kts | 274° |
| 2026-05-07 04:17 | 47.43625 | 8.85580 | 5688 ft | 217 kts | 274° |
| 2026-05-07 04:18 | 47.43783 | 8.83365 | 5379 ft | 216 kts | 274° |
| 2026-05-07 04:18 | 47.43940 | 8.81168 | 5055 ft | 214 kts | 274° |
| 2026-05-07 04:18 | 47.44094 | 8.79009 | 4725 ft | 207 kts | 274° |
| 2026-05-07 04:18 | 47.44241 | 8.76950 | 4439 ft | 194 kts | 274° |
| 2026-05-07 04:19 | 47.44379 | 8.75025 | 4224 ft | 184 kts | 273° |
| 2026-05-07 04:19 | 47.44511 | 8.73171 | 3932 ft | 179 kts | 274° |
| 2026-05-07 04:19 | 47.44639 | 8.71384 | 3653 ft | 170 kts | 274° |
| 2026-05-07 04:19 | 47.44757 | 8.69728 | 3425 ft | 159 kts | 274° |
| 2026-05-07 04:20 | 47.44866 | 8.68198 | 3187 ft | 138 kts | 274° |
| 2026-05-07 04:20 | 47.44964 | 8.66830 | 2955 ft | 134 kts | 274° |
| 2026-05-07 04:20 | 47.45061 | 8.65459 | 2753 ft | 135 kts | 274° |
| 2026-05-07 04:21 | 47.45266 | 8.62678 | 2320 ft | 137 kts | 275° |
| 2026-05-07 04:21 | 47.45372 | 8.61270 | 2080 ft | 138 kts | 275° |
| 2026-05-07 04:21 | 47.45471 | 8.59858 | 1897 ft | 139 kts | 275° |
| 2026-05-07 04:21 | 47.45556 | 8.58441 | 1695 ft | 139 kts | 276° |
| 2026-05-07 04:22 | 47.45659 | 8.57028 | 1475 ft | 138 kts | 277° |
| 2026-05-07 04:22 | 47.45755 | 8.55731 | 1412 ft | 106 kts | 275° |
| 2026-05-07 04:22 | 47.45801 | 8.55092 | 1401 ft | 23 kts | 277° |
| 2026-05-07 04:22 | 47.45824 | 8.54849 | 1399 ft | 24 kts | 290° |
| 2026-05-07 04:23 | 47.45917 | 8.54787 | 1403 ft | 13 kts | 56° |
| 2026-05-07 04:23 | 47.45917 | 8.54906 | 1400 ft | 12 kts | 96° |
| 2026-05-07 04:23 | 47.45922 | 8.54989 | 1409 ft | 7 kts | 51° |
| 2026-05-07 04:23 | 47.45977 | 8.55013 | 1400 ft | 9 kts | 28° |
| 2026-05-07 04:24 | 47.46032 | 8.55055 | 1397 ft | 8 kts | 11° |
| 2026-05-07 04:24 | 47.46081 | 8.55077 | 1401 ft | 8 kts | 55° |
| 2026-05-07 04:24 | 47.46094 | 8.55115 | 1401 ft | 2 kts | 63° |
| 2026-05-07 04:24 | 47.46100 | 8.55132 | 1400 ft | 2 kts | 64° |
| 2026-05-07 04:25 | 47.46102 | 8.55140 | 1405 ft | 0 kts | 65° |